sensor_id;sensor_type;location;lat;lon;timestamp;temperature;humidity
76897;SHT30;65856;52.178;21.176;2023-10-08T00:02:44;12.74;75.11
76897;SHT30;65856;52.178;21.176;2023-10-08T00:05:10;12.75;75.08
76897;SHT30;65856;52.178;21.176;2023-10-08T00:07:35;12.75;75.12
76897;SHT30;65856;52.178;21.176;2023-10-08T00:10:01;12.75;75.11
76897;SHT30;65856;52.178;21.176;2023-10-08T00:12:27;12.75;75.11
76897;SHT30;65856;52.178;21.176;2023-10-08T00:14:54;12.72;75.12
76897;SHT30;65856;52.178;21.176;2023-10-08T00:17:19;12.70;75.21
76897;SHT30;65856;52.178;21.176;2023-10-08T00:19:45;12.68;75.40
76897;SHT30;65856;52.178;21.176;2023-10-08T00:22:12;12.67;75.47
76897;SHT30;65856;52.178;21.176;2023-10-08T00:24:41;12.68;75.54
76897;SHT30;65856;52.178;21.176;2023-10-08T00:27:07;12.69;75.65
76897;SHT30;65856;52.178;21.176;2023-10-08T00:29:34;12.69;75.79
76897;SHT30;65856;52.178;21.176;2023-10-08T00:32:00;12.70;75.86
76897;SHT30;65856;52.178;21.176;2023-10-08T00:34:36;12.72;75.93
76897;SHT30;65856;52.178;21.176;2023-10-08T00:37:07;12.72;76.00
76897;SHT30;65856;52.178;21.176;2023-10-08T00:39:38;12.72;76.01
76897;SHT30;65856;52.178;21.176;2023-10-08T00:42:05;12.70;76.16
76897;SHT30;65856;52.178;21.176;2023-10-08T00:44:32;12.70;76.20
76897;SHT30;65856;52.178;21.176;2023-10-08T00:47:03;12.71;76.20
76897;SHT30;65856;52.178;21.176;2023-10-08T00:49:29;12.73;76.20
76897;SHT30;65856;52.178;21.176;2023-10-08T00:52:13;12.75;76.15
76897;SHT30;65856;52.178;21.176;2023-10-08T00:54:40;12.72;76.17
76897;SHT30;65856;52.178;21.176;2023-10-08T00:57:22;12.70;76.20
76897;SHT30;65856;52.178;21.176;2023-10-08T00:59:51;12.72;76.20
76897;SHT30;65856;52.178;21.176;2023-10-08T01:02:21;12.70;76.16
76897;SHT30;65856;52.178;21.176;2023-10-08T01:04:52;12.72;76.16
76897;SHT30;65856;52.178;21.176;2023-10-08T01:07:19;12.71;76.10
76897;SHT30;65856;52.178;21.176;2023-10-08T01:09:46;12.69;76.12
76897;SHT30;65856;52.178;21.176;2023-10-08T01:12:22;12.67;76.18
76897;SHT30;65856;52.178;21.176;2023-10-08T01:14:53;12.66;76.15
76897;SHT30;65856;52.178;21.176;2023-10-08T01:17:19;12.68;76.19
76897;SHT30;65856;52.178;21.176;2023-10-08T01:19:51;12.68;76.09
76897;SHT30;65856;52.178;21.176;2023-10-08T01:22:33;12.70;76.07
76897;SHT30;65856;52.178;21.176;2023-10-08T01:24:58;12.69;75.94
76897;SHT30;65856;52.178;21.176;2023-10-08T01:27:29;12.70;75.89
76897;SHT30;65856;52.178;21.176;2023-10-08T01:29:59;12.71;75.71
76897;SHT30;65856;52.178;21.176;2023-10-08T01:32:43;12.71;75.51
76897;SHT30;65856;52.178;21.176;2023-10-08T01:35:09;12.70;75.43
76897;SHT30;65856;52.178;21.176;2023-10-08T01:37:48;12.67;75.22
76897;SHT30;65856;52.178;21.176;2023-10-08T01:40:21;12.65;75.16
76897;SHT30;65856;52.178;21.176;2023-10-08T01:42:50;12.65;75.01
76897;SHT30;65856;52.178;21.176;2023-10-08T01:45:16;12.63;74.98
76897;SHT30;65856;52.178;21.176;2023-10-08T01:47:43;12.61;74.96
76897;SHT30;65856;52.178;21.176;2023-10-08T01:50:09;12.64;74.97
76897;SHT30;65856;52.178;21.176;2023-10-08T01:52:46;12.65;75.13
76897;SHT30;65856;52.178;21.176;2023-10-08T01:55:13;12.66;75.23
76897;SHT30;65856;52.178;21.176;2023-10-08T01:57:43;12.68;75.20
76897;SHT30;65856;52.178;21.176;2023-10-08T02:00:12;12.67;75.13
76897;SHT30;65856;52.178;21.176;2023-10-08T02:02:47;12.67;75.16
76897;SHT30;65856;52.178;21.176;2023-10-08T02:05:15;12.68;75.20
76897;SHT30;65856;52.178;21.176;2023-10-08T02:07:44;12.72;75.19
76897;SHT30;65856;52.178;21.176;2023-10-08T02:10:11;12.71;74.98
76897;SHT30;65856;52.178;21.176;2023-10-08T02:12:40;12.70;74.83
76897;SHT30;65856;52.178;21.176;2023-10-08T02:15:06;12.68;74.73
76897;SHT30;65856;52.178;21.176;2023-10-08T02:17:33;12.69;74.66
76897;SHT30;65856;52.178;21.176;2023-10-08T02:19:59;12.70;74.50
76897;SHT30;65856;52.178;21.176;2023-10-08T02:22:24;12.72;74.44
76897;SHT30;65856;52.178;21.176;2023-10-08T02:24:50;12.72;74.28
76897;SHT30;65856;52.178;21.176;2023-10-08T02:27:16;12.71;74.23
76897;SHT30;65856;52.178;21.176;2023-10-08T02:29:41;12.72;74.19
76897;SHT30;65856;52.178;21.176;2023-10-08T02:32:07;12.70;73.93
76897;SHT30;65856;52.178;21.176;2023-10-08T02:34:33;12.70;73.96
76897;SHT30;65856;52.178;21.176;2023-10-08T02:37:00;12.68;73.86
76897;SHT30;65856;52.178;21.176;2023-10-08T02:39:28;12.68;73.90
76897;SHT30;65856;52.178;21.176;2023-10-08T02:41:55;12.67;73.91
76897;SHT30;65856;52.178;21.176;2023-10-08T02:44:24;12.66;73.93
76897;SHT30;65856;52.178;21.176;2023-10-08T02:46:49;12.65;73.97
76897;SHT30;65856;52.178;21.176;2023-10-08T02:49:19;12.64;74.04
76897;SHT30;65856;52.178;21.176;2023-10-08T02:51:48;12.64;74.04
76897;SHT30;65856;52.178;21.176;2023-10-08T02:54:16;12.64;74.01
76897;SHT30;65856;52.178;21.176;2023-10-08T02:56:46;12.61;73.90
76897;SHT30;65856;52.178;21.176;2023-10-08T02:59:22;12.58;73.99
76897;SHT30;65856;52.178;21.176;2023-10-08T03:01:48;12.58;74.14
76897;SHT30;65856;52.178;21.176;2023-10-08T03:04:15;12.58;74.23
76897;SHT30;65856;52.178;21.176;2023-10-08T03:06:44;12.55;74.47
76897;SHT30;65856;52.178;21.176;2023-10-08T03:09:20;12.55;74.63
76897;SHT30;65856;52.178;21.176;2023-10-08T03:11:50;12.56;74.65
76897;SHT30;65856;52.178;21.176;2023-10-08T03:14:17;12.56;74.65
76897;SHT30;65856;52.178;21.176;2023-10-08T03:16:49;12.55;74.66
76897;SHT30;65856;52.178;21.176;2023-10-08T03:19:18;12.55;74.57
76897;SHT30;65856;52.178;21.176;2023-10-08T03:21:46;12.53;74.42
76897;SHT30;65856;52.178;21.176;2023-10-08T03:24:22;12.52;74.16
76897;SHT30;65856;52.178;21.176;2023-10-08T03:27:00;12.51;73.97
76897;SHT30;65856;52.178;21.176;2023-10-08T03:29:38;12.50;73.79
76897;SHT30;65856;52.178;21.176;2023-10-08T03:32:10;12.46;73.80
76897;SHT30;65856;52.178;21.176;2023-10-08T03:34:44;12.44;73.80
76897;SHT30;65856;52.178;21.176;2023-10-08T03:37:11;12.43;73.74
76897;SHT30;65856;52.178;21.176;2023-10-08T03:39:45;12.43;73.70
76897;SHT30;65856;52.178;21.176;2023-10-08T03:42:25;12.42;73.58
76897;SHT30;65856;52.178;21.176;2023-10-08T03:44:55;12.40;73.30
76897;SHT30;65856;52.178;21.176;2023-10-08T03:47:21;12.41;73.25
76897;SHT30;65856;52.178;21.176;2023-10-08T03:49:51;12.42;73.00
76897;SHT30;65856;52.178;21.176;2023-10-08T03:52:17;12.39;72.63
76897;SHT30;65856;52.178;21.176;2023-10-08T03:54:48;12.38;72.56
76897;SHT30;65856;52.178;21.176;2023-10-08T03:57:29;12.38;72.20
76897;SHT30;65856;52.178;21.176;2023-10-08T04:00:07;12.35;71.61
76897;SHT30;65856;52.178;21.176;2023-10-08T04:02:44;12.32;70.89
76897;SHT30;65856;52.178;21.176;2023-10-08T04:05:21;12.31;70.38
76897;SHT30;65856;52.178;21.176;2023-10-08T04:07:52;12.32;70.07
76897;SHT30;65856;52.178;21.176;2023-10-08T04:10:24;12.29;69.58
76897;SHT30;65856;52.178;21.176;2023-10-08T04:13:04;12.27;69.15
76897;SHT30;65856;52.178;21.176;2023-10-08T04:15:34;12.24;68.61
76897;SHT30;65856;52.178;21.176;2023-10-08T04:18:06;12.20;67.78
76897;SHT30;65856;52.178;21.176;2023-10-08T04:20:33;12.13;67.63
76897;SHT30;65856;52.178;21.176;2023-10-08T04:23:24;12.06;67.41
76897;SHT30;65856;52.178;21.176;2023-10-08T04:25:49;12.06;67.19
76897;SHT30;65856;52.178;21.176;2023-10-08T04:28:19;12.02;66.39
76897;SHT30;65856;52.178;21.176;2023-10-08T04:30:45;11.95;66.49
76897;SHT30;65856;52.178;21.176;2023-10-08T04:33:15;11.90;66.26
76897;SHT30;65856;52.178;21.176;2023-10-08T04:35:42;11.89;66.33
76897;SHT30;65856;52.178;21.176;2023-10-08T04:38:22;11.88;66.15
76897;SHT30;65856;52.178;21.176;2023-10-08T04:40:53;11.86;65.99
76897;SHT30;65856;52.178;21.176;2023-10-08T04:43:20;11.83;65.69
76897;SHT30;65856;52.178;21.176;2023-10-08T04:45:56;11.80;65.46
76897;SHT30;65856;52.178;21.176;2023-10-08T04:48:26;11.77;65.42
76897;SHT30;65856;52.178;21.176;2023-10-08T04:50:57;11.77;65.47
76897;SHT30;65856;52.178;21.176;2023-10-08T04:53:27;11.73;65.05
76897;SHT30;65856;52.178;21.176;2023-10-08T04:56:03;11.68;64.82
76897;SHT30;65856;52.178;21.176;2023-10-08T04:58:32;11.66;65.01
76897;SHT30;65856;52.178;21.176;2023-10-08T05:01:01;11.66;64.98
76897;SHT30;65856;52.178;21.176;2023-10-08T05:03:45;11.67;64.94
76897;SHT30;65856;52.178;21.176;2023-10-08T05:06:22;11.63;64.55
76897;SHT30;65856;52.178;21.176;2023-10-08T05:09:03;11.59;64.49
76897;SHT30;65856;52.178;21.176;2023-10-08T05:11:45;11.58;64.54
76897;SHT30;65856;52.178;21.176;2023-10-08T05:14:15;11.56;64.34
76897;SHT30;65856;52.178;21.176;2023-10-08T05:16:57;11.52;64.38
76897;SHT30;65856;52.178;21.176;2023-10-08T05:19:37;11.51;64.42
76897;SHT30;65856;52.178;21.176;2023-10-08T05:22:09;11.51;64.43
76897;SHT30;65856;52.178;21.176;2023-10-08T05:24:53;11.47;64.07
76897;SHT30;65856;52.178;21.176;2023-10-08T05:27:42;11.44;64.21
76897;SHT30;65856;52.178;21.176;2023-10-08T05:30:12;11.42;64.21
76897;SHT30;65856;52.178;21.176;2023-10-08T05:32:43;11.40;64.27
76897;SHT30;65856;52.178;21.176;2023-10-08T05:35:27;11.36;63.89
76897;SHT30;65856;52.178;21.176;2023-10-08T05:40:52;11.32;64.00
76897;SHT30;65856;52.178;21.176;2023-10-08T05:43:21;11.33;63.98
76897;SHT30;65856;52.178;21.176;2023-10-08T05:46:08;11.32;63.81
76897;SHT30;65856;52.178;21.176;2023-10-08T05:49:07;11.32;63.70
76897;SHT30;65856;52.178;21.176;2023-10-08T05:51:35;11.29;63.49
76897;SHT30;65856;52.178;21.176;2023-10-08T05:54:18;11.29;63.47
76897;SHT30;65856;52.178;21.176;2023-10-08T05:56:54;11.29;63.50
76897;SHT30;65856;52.178;21.176;2023-10-08T05:59:40;11.29;63.62
76897;SHT30;65856;52.178;21.176;2023-10-08T06:04:53;11.32;63.11
76897;SHT30;65856;52.178;21.176;2023-10-08T06:07:44;11.30;62.56
76897;SHT30;65856;52.178;21.176;2023-10-08T06:10:20;11.27;62.44
76897;SHT30;65856;52.178;21.176;2023-10-08T06:18:31;11.29;62.04
76897;SHT30;65856;52.178;21.176;2023-10-08T06:20:59;11.31;61.99
76897;SHT30;65856;52.178;21.176;2023-10-08T06:23:34;11.34;62.27
76897;SHT30;65856;52.178;21.176;2023-10-08T06:26:01;11.34;62.15
76897;SHT30;65856;52.178;21.176;2023-10-08T06:28:40;11.35;62.12
76897;SHT30;65856;52.178;21.176;2023-10-08T06:31:07;11.43;62.17
76897;SHT30;65856;52.178;21.176;2023-10-08T06:33:39;11.50;61.62
76897;SHT30;65856;52.178;21.176;2023-10-08T06:36:06;11.56;61.17
76897;SHT30;65856;52.178;21.176;2023-10-08T06:38:38;11.62;60.65
76897;SHT30;65856;52.178;21.176;2023-10-08T06:41:09;11.73;60.63
76897;SHT30;65856;52.178;21.176;2023-10-08T06:43:40;11.86;59.90
76897;SHT30;65856;52.178;21.176;2023-10-08T06:46:27;12.01;59.51
76897;SHT30;65856;52.178;21.176;2023-10-08T06:48:57;12.16;58.89
76897;SHT30;65856;52.178;21.176;2023-10-08T06:51:24;12.28;57.97
76897;SHT30;65856;52.178;21.176;2023-10-08T06:53:51;12.42;57.76
76897;SHT30;65856;52.178;21.176;2023-10-08T06:56:17;12.58;57.82
76897;SHT30;65856;52.178;21.176;2023-10-08T06:58:44;12.73;57.30
76897;SHT30;65856;52.178;21.176;2023-10-08T07:01:14;12.91;57.07
76897;SHT30;65856;52.178;21.176;2023-10-08T07:03:50;13.11;56.43
76897;SHT30;65856;52.178;21.176;2023-10-08T07:06:17;13.27;55.75
76897;SHT30;65856;52.178;21.176;2023-10-08T07:08:51;13.42;55.19
76897;SHT30;65856;52.178;21.176;2023-10-08T07:11:20;13.60;54.76
76897;SHT30;65856;52.178;21.176;2023-10-08T07:13:47;13.81;54.24
76897;SHT30;65856;52.178;21.176;2023-10-08T07:16:13;14.02;53.73
76897;SHT30;65856;52.178;21.176;2023-10-08T07:18:42;14.19;53.00
76897;SHT30;65856;52.178;21.176;2023-10-08T07:21:16;14.40;52.20
76897;SHT30;65856;52.178;21.176;2023-10-08T07:23:41;14.56;52.07
76897;SHT30;65856;52.178;21.176;2023-10-08T07:26:23;14.75;51.29
76897;SHT30;65856;52.178;21.176;2023-10-08T07:28:50;14.96;51.35
76897;SHT30;65856;52.178;21.176;2023-10-08T07:31:17;15.18;50.30
76897;SHT30;65856;52.178;21.176;2023-10-08T07:33:49;15.31;49.63
76897;SHT30;65856;52.178;21.176;2023-10-08T07:36:26;15.38;48.87
76897;SHT30;65856;52.178;21.176;2023-10-08T07:38:53;15.49;48.41
76897;SHT30;65856;52.178;21.176;2023-10-08T07:41:19;15.64;48.21
76897;SHT30;65856;52.178;21.176;2023-10-08T07:43:45;15.82;47.65
76897;SHT30;65856;52.178;21.176;2023-10-08T07:46:21;16.03;47.04
76897;SHT30;65856;52.178;21.176;2023-10-08T07:48:53;16.14;45.84
76897;SHT30;65856;52.178;21.176;2023-10-08T07:51:23;16.21;45.17
76897;SHT30;65856;52.178;21.176;2023-10-08T07:53:49;16.29;44.92
76897;SHT30;65856;52.178;21.176;2023-10-08T07:56:21;16.30;44.71
76897;SHT30;65856;52.178;21.176;2023-10-08T07:58:48;16.38;44.37
76897;SHT30;65856;52.178;21.176;2023-10-08T08:01:14;16.45;44.09
76897;SHT30;65856;52.178;21.176;2023-10-08T08:03:40;16.56;44.12
76897;SHT30;65856;52.178;21.176;2023-10-08T08:06:07;16.73;44.15
76897;SHT30;65856;52.178;21.176;2023-10-08T08:08:34;16.88;43.45
76897;SHT30;65856;52.178;21.176;2023-10-08T08:11:08;16.96;43.02
76897;SHT30;65856;52.178;21.176;2023-10-08T08:13:37;16.96;43.00
76897;SHT30;65856;52.178;21.176;2023-10-08T08:16:07;16.93;42.77
76897;SHT30;65856;52.178;21.176;2023-10-08T08:18:45;16.82;42.70
76897;SHT30;65856;52.178;21.176;2023-10-08T08:21:18;16.86;42.80
76897;SHT30;65856;52.178;21.176;2023-10-08T08:23:47;16.97;42.94
76897;SHT30;65856;52.178;21.176;2023-10-08T08:26:23;17.11;42.65
76897;SHT30;65856;52.178;21.176;2023-10-08T08:28:53;17.27;42.64
76897;SHT30;65856;52.178;21.176;2023-10-08T08:31:22;17.37;41.83
76897;SHT30;65856;52.178;21.176;2023-10-08T08:33:50;17.33;41.19
76897;SHT30;65856;52.178;21.176;2023-10-08T08:36:19;17.21;40.81
76897;SHT30;65856;52.178;21.176;2023-10-08T08:38:45;17.10;41.20
76897;SHT30;65856;52.178;21.176;2023-10-08T08:41:11;17.15;41.50
76897;SHT30;65856;52.178;21.176;2023-10-08T08:43:37;17.13;41.04
76897;SHT30;65856;52.178;21.176;2023-10-08T08:46:09;16.94;41.01
76897;SHT30;65856;52.178;21.176;2023-10-08T08:48:39;16.89;41.50
76897;SHT30;65856;52.178;21.176;2023-10-08T08:51:06;16.89;41.11
76897;SHT30;65856;52.178;21.176;2023-10-08T08:53:35;16.73;40.84
76897;SHT30;65856;52.178;21.176;2023-10-08T08:56:02;16.60;41.40
76897;SHT30;65856;52.178;21.176;2023-10-08T08:58:34;16.56;41.70
76897;SHT30;65856;52.178;21.176;2023-10-08T09:01:00;16.53;41.19
76897;SHT30;65856;52.178;21.176;2023-10-08T09:03:28;16.36;40.37
76897;SHT30;65856;52.178;21.176;2023-10-08T09:05:57;16.16;40.90
76897;SHT30;65856;52.178;21.176;2023-10-08T09:08:28;16.00;41.32
76897;SHT30;65856;52.178;21.176;2023-10-08T09:10:59;15.94;42.18
76897;SHT30;65856;52.178;21.176;2023-10-08T09:13:29;16.02;42.07
76897;SHT30;65856;52.178;21.176;2023-10-08T09:16:07;16.06;41.56
76897;SHT30;65856;52.178;21.176;2023-10-08T09:18:36;16.02;41.38
76897;SHT30;65856;52.178;21.176;2023-10-08T09:21:13;15.98;41.34
76897;SHT30;65856;52.178;21.176;2023-10-08T09:23:44;15.93;40.84
76897;SHT30;65856;52.178;21.176;2023-10-08T09:26:22;15.82;40.68
76897;SHT30;65856;52.178;21.176;2023-10-08T09:28:49;15.70;40.89
76897;SHT30;65856;52.178;21.176;2023-10-08T09:31:16;15.58;41.07
76897;SHT30;65856;52.178;21.176;2023-10-08T09:33:55;15.47;40.74
76897;SHT30;65856;52.178;21.176;2023-10-08T09:36:21;15.41;40.58
76897;SHT30;65856;52.178;21.176;2023-10-08T09:38:57;15.31;40.43
76897;SHT30;65856;52.178;21.176;2023-10-08T09:41:26;15.17;40.60
76897;SHT30;65856;52.178;21.176;2023-10-08T09:43:54;15.11;41.28
76897;SHT30;65856;52.178;21.176;2023-10-08T09:46:23;15.04;41.36
76897;SHT30;65856;52.178;21.176;2023-10-08T09:48:59;14.94;41.52
76897;SHT30;65856;52.178;21.176;2023-10-08T09:51:28;14.89;41.50
76897;SHT30;65856;52.178;21.176;2023-10-08T09:54:03;14.78;41.09
76897;SHT30;65856;52.178;21.176;2023-10-08T09:56:35;14.71;41.22
76897;SHT30;65856;52.178;21.176;2023-10-08T09:59:04;14.71;41.66
76897;SHT30;65856;52.178;21.176;2023-10-08T10:01:29;14.72;41.94
76897;SHT30;65856;52.178;21.176;2023-10-08T10:03:58;14.66;41.70
76897;SHT30;65856;52.178;21.176;2023-10-08T10:06:24;14.62;41.48
76897;SHT30;65856;52.178;21.176;2023-10-08T10:08:51;14.59;41.85
76897;SHT30;65856;52.178;21.176;2023-10-08T10:11:25;14.59;41.56
76897;SHT30;65856;52.178;21.176;2023-10-08T10:13:57;14.55;41.77
76897;SHT30;65856;52.178;21.176;2023-10-08T10:16:25;14.50;41.49
76897;SHT30;65856;52.178;21.176;2023-10-08T10:18:54;14.42;41.33
76897;SHT30;65856;52.178;21.176;2023-10-08T10:21:25;14.37;41.41
76897;SHT30;65856;52.178;21.176;2023-10-08T10:23:55;14.36;41.64
76897;SHT30;65856;52.178;21.176;2023-10-08T10:31:33;14.65;44.04
76897;SHT30;65856;52.178;21.176;2023-10-08T10:34:03;14.77;43.21
76897;SHT30;65856;52.178;21.176;2023-10-08T10:36:34;14.75;42.44
76897;SHT30;65856;52.178;21.176;2023-10-08T10:39:00;14.75;42.34
76897;SHT30;65856;52.178;21.176;2023-10-08T10:41:40;14.75;42.66
76897;SHT30;65856;52.178;21.176;2023-10-08T10:44:07;14.74;42.72
76897;SHT30;65856;52.178;21.176;2023-10-08T10:46:33;14.78;42.65
76897;SHT30;65856;52.178;21.176;2023-10-08T10:49:06;14.81;41.91
76897;SHT30;65856;52.178;21.176;2023-10-08T10:51:54;14.81;41.29
76897;SHT30;65856;52.178;21.176;2023-10-08T10:54:23;14.79;41.23
76897;SHT30;65856;52.178;21.176;2023-10-08T10:56:52;14.78;40.95
76897;SHT30;65856;52.178;21.176;2023-10-08T10:59:34;14.75;40.36
76897;SHT30;65856;52.178;21.176;2023-10-08T11:02:05;14.73;39.70
76897;SHT30;65856;52.178;21.176;2023-10-08T11:04:46;14.68;39.51
76897;SHT30;65856;52.178;21.176;2023-10-08T11:07:17;14.59;39.54
76897;SHT30;65856;52.178;21.176;2023-10-08T11:09:49;14.59;39.72
76897;SHT30;65856;52.178;21.176;2023-10-08T11:12:17;14.60;39.74
76897;SHT30;65856;52.178;21.176;2023-10-08T11:14:48;14.60;40.30
76897;SHT30;65856;52.178;21.176;2023-10-08T11:17:17;14.60;39.94
76897;SHT30;65856;52.178;21.176;2023-10-08T11:19:49;14.58;40.02
76897;SHT30;65856;52.178;21.176;2023-10-08T11:22:16;14.55;39.65
76897;SHT30;65856;52.178;21.176;2023-10-08T11:24:42;14.50;40.25
76897;SHT30;65856;52.178;21.176;2023-10-08T11:27:12;14.49;40.59
76897;SHT30;65856;52.178;21.176;2023-10-08T11:29:48;14.55;40.81
76897;SHT30;65856;52.178;21.176;2023-10-08T11:32:22;14.57;40.24
76897;SHT30;65856;52.178;21.176;2023-10-08T11:34:54;14.54;39.56
76897;SHT30;65856;52.178;21.176;2023-10-08T11:37:44;14.46;39.69
76897;SHT30;65856;52.178;21.176;2023-10-08T11:40:21;14.41;39.25
76897;SHT30;65856;52.178;21.176;2023-10-08T11:43:08;14.38;39.01
76897;SHT30;65856;52.178;21.176;2023-10-08T11:45:40;14.38;39.03
76897;SHT30;65856;52.178;21.176;2023-10-08T11:48:13;14.40;38.70
76897;SHT30;65856;52.178;21.176;2023-10-08T11:50:42;14.40;38.65
76897;SHT30;65856;52.178;21.176;2023-10-08T11:53:08;14.39;38.80
76897;SHT30;65856;52.178;21.176;2023-10-08T11:55:36;14.40;38.56
76897;SHT30;65856;52.178;21.176;2023-10-08T11:58:04;14.41;38.59
76897;SHT30;65856;52.178;21.176;2023-10-08T12:00:42;14.42;38.37
76897;SHT30;65856;52.178;21.176;2023-10-08T12:03:13;14.42;37.83
76897;SHT30;65856;52.178;21.176;2023-10-08T12:05:46;14.43;37.28
76897;SHT30;65856;52.178;21.176;2023-10-08T12:08:18;14.38;37.09
76897;SHT30;65856;52.178;21.176;2023-10-08T12:10:47;14.32;37.20
76897;SHT30;65856;52.178;21.176;2023-10-08T12:13:14;14.24;37.20
76897;SHT30;65856;52.178;21.176;2023-10-08T12:15:43;14.16;36.97
76897;SHT30;65856;52.178;21.176;2023-10-08T12:18:09;14.10;36.63
76897;SHT30;65856;52.178;21.176;2023-10-08T12:20:51;14.03;36.96
76897;SHT30;65856;52.178;21.176;2023-10-08T12:23:17;14.00;36.80
76897;SHT30;65856;52.178;21.176;2023-10-08T12:25:54;13.96;37.31
76897;SHT30;65856;52.178;21.176;2023-10-08T12:28:23;13.99;37.71
76897;SHT30;65856;52.178;21.176;2023-10-08T12:30:49;14.05;37.79
76897;SHT30;65856;52.178;21.176;2023-10-08T12:33:20;14.10;37.72
76897;SHT30;65856;52.178;21.176;2023-10-08T12:35:49;14.15;37.47
76897;SHT30;65856;52.178;21.176;2023-10-08T12:38:20;14.21;37.69
76897;SHT30;65856;52.178;21.176;2023-10-08T12:40:52;14.25;37.30
76897;SHT30;65856;52.178;21.176;2023-10-08T12:43:19;14.27;36.96
76897;SHT30;65856;52.178;21.176;2023-10-08T12:45:46;14.31;36.34
76897;SHT30;65856;52.178;21.176;2023-10-08T12:48:26;14.23;35.28
76897;SHT30;65856;52.178;21.176;2023-10-08T12:50:54;14.14;35.40
76897;SHT30;65856;52.178;21.176;2023-10-08T12:53:24;14.10;36.16
76897;SHT30;65856;52.178;21.176;2023-10-08T12:56:04;14.06;35.25
76897;SHT30;65856;52.178;21.176;2023-10-08T12:58:40;13.99;35.18
76897;SHT30;65856;52.178;21.176;2023-10-08T13:01:12;13.94;35.51
76897;SHT30;65856;52.178;21.176;2023-10-08T13:03:39;13.94;35.91
76897;SHT30;65856;52.178;21.176;2023-10-08T13:06:12;13.95;35.92
76897;SHT30;65856;52.178;21.176;2023-10-08T13:08:51;13.95;35.63
76897;SHT30;65856;52.178;21.176;2023-10-08T13:11:18;13.89;35.60
76897;SHT30;65856;52.178;21.176;2023-10-08T13:13:51;13.82;36.06
76897;SHT30;65856;52.178;21.176;2023-10-08T13:16:21;13.78;36.17
76897;SHT30;65856;52.178;21.176;2023-10-08T13:18:51;13.74;36.07
76897;SHT30;65856;52.178;21.176;2023-10-08T13:21:17;13.69;36.40
76897;SHT30;65856;52.178;21.176;2023-10-08T13:23:49;13.69;36.88
76897;SHT30;65856;52.178;21.176;2023-10-08T13:26:18;13.72;37.36
76897;SHT30;65856;52.178;21.176;2023-10-08T13:28:47;13.74;37.16
76897;SHT30;65856;52.178;21.176;2023-10-08T13:31:13;13.74;37.27
76897;SHT30;65856;52.178;21.176;2023-10-08T13:33:41;13.76;37.56
76897;SHT30;65856;52.178;21.176;2023-10-08T13:36:10;13.78;37.70
76897;SHT30;65856;52.178;21.176;2023-10-08T13:38:36;13.80;37.45
76897;SHT30;65856;52.178;21.176;2023-10-08T13:41:03;13.81;36.97
76897;SHT30;65856;52.178;21.176;2023-10-08T13:43:34;13.83;37.08
76897;SHT30;65856;52.178;21.176;2023-10-08T13:46:04;13.84;36.96
76897;SHT30;65856;52.178;21.176;2023-10-08T13:48:34;13.84;36.63
76897;SHT30;65856;52.178;21.176;2023-10-08T13:51:01;13.81;36.63
76897;SHT30;65856;52.178;21.176;2023-10-08T13:53:29;13.77;36.64
76897;SHT30;65856;52.178;21.176;2023-10-08T13:55:58;13.74;36.39
76897;SHT30;65856;52.178;21.176;2023-10-08T13:58:29;13.71;36.66
76897;SHT30;65856;52.178;21.176;2023-10-08T14:00:58;13.70;36.79
76897;SHT30;65856;52.178;21.176;2023-10-08T14:03:29;13.65;37.00
76897;SHT30;65856;52.178;21.176;2023-10-08T14:05:56;13.61;36.88
76897;SHT30;65856;52.178;21.176;2023-10-08T14:08:28;13.59;37.22
76897;SHT30;65856;52.178;21.176;2023-10-08T14:10:55;13.63;37.74
76897;SHT30;65856;52.178;21.176;2023-10-08T14:13:28;13.67;37.56
76897;SHT30;65856;52.178;21.176;2023-10-08T14:15:58;13.68;37.20
76897;SHT30;65856;52.178;21.176;2023-10-08T14:18:24;13.69;37.29
76897;SHT30;65856;52.178;21.176;2023-10-08T14:20:54;13.65;37.29
76897;SHT30;65856;52.178;21.176;2023-10-08T14:23:21;13.60;37.16
76897;SHT30;65856;52.178;21.176;2023-10-08T14:25:49;13.53;36.67
76897;SHT30;65856;52.178;21.176;2023-10-08T14:28:16;13.49;35.80
76897;SHT30;65856;52.178;21.176;2023-10-08T14:31:06;13.43;35.89
76897;SHT30;65856;52.178;21.176;2023-10-08T14:33:33;13.40;35.42
76897;SHT30;65856;52.178;21.176;2023-10-08T14:36:07;13.34;35.70
76897;SHT30;65856;52.178;21.176;2023-10-08T14:38:52;13.29;35.55
76897;SHT30;65856;52.178;21.176;2023-10-08T14:41:36;13.20;35.94
76897;SHT30;65856;52.178;21.176;2023-10-08T14:44:20;13.22;36.10
76897;SHT30;65856;52.178;21.176;2023-10-08T14:46:45;13.20;35.74
76897;SHT30;65856;52.178;21.176;2023-10-08T14:49:11;13.16;35.53
76897;SHT30;65856;52.178;21.176;2023-10-08T14:51:37;13.09;35.14
76897;SHT30;65856;52.178;21.176;2023-10-08T14:54:05;13.02;35.04
76897;SHT30;65856;52.178;21.176;2023-10-08T14:56:33;13.00;35.64
76897;SHT30;65856;52.178;21.176;2023-10-08T14:59:00;13.02;36.04
76897;SHT30;65856;52.178;21.176;2023-10-08T15:01:27;12.98;35.80
76897;SHT30;65856;52.178;21.176;2023-10-08T15:03:53;12.97;36.46
76897;SHT30;65856;52.178;21.176;2023-10-08T15:06:18;12.96;36.49
76897;SHT30;65856;52.178;21.176;2023-10-08T15:08:45;12.95;36.27
76897;SHT30;65856;52.178;21.176;2023-10-08T15:11:11;12.96;36.53
76897;SHT30;65856;52.178;21.176;2023-10-08T15:13:37;12.95;36.64
76897;SHT30;65856;52.178;21.176;2023-10-08T15:16:04;12.92;36.52
76897;SHT30;65856;52.178;21.176;2023-10-08T15:18:30;12.94;37.55
76897;SHT30;65856;52.178;21.176;2023-10-08T15:20:57;12.98;36.89
76897;SHT30;65856;52.178;21.176;2023-10-08T15:23:23;12.95;36.40
76897;SHT30;65856;52.178;21.176;2023-10-08T15:25:52;12.90;36.38
76897;SHT30;65856;52.178;21.176;2023-10-08T15:28:18;12.84;36.47
76897;SHT30;65856;52.178;21.176;2023-10-08T15:30:44;12.81;36.58
76897;SHT30;65856;52.178;21.176;2023-10-08T15:33:11;12.75;36.57
76897;SHT30;65856;52.178;21.176;2023-10-08T15:35:37;12.69;36.67
76897;SHT30;65856;52.178;21.176;2023-10-08T15:38:03;12.64;37.06
76897;SHT30;65856;52.178;21.176;2023-10-08T15:40:29;12.66;37.28
76897;SHT30;65856;52.178;21.176;2023-10-08T15:42:55;12.65;37.24
76897;SHT30;65856;52.178;21.176;2023-10-08T15:45:22;12.60;37.07
76897;SHT30;65856;52.178;21.176;2023-10-08T15:47:49;12.55;37.18
76897;SHT30;65856;52.178;21.176;2023-10-08T15:50:15;12.51;37.52
76897;SHT30;65856;52.178;21.176;2023-10-08T15:52:45;12.48;37.92
76897;SHT30;65856;52.178;21.176;2023-10-08T15:55:12;12.43;38.10